Time;durP1;ratioP1;P1;durP2;ratioP2;P2;SDS_P1;SDS_P2;PMS_P1;PMS_P2;Temp;Humidity;BMP_temperature;BMP_pressure;BME280_temperature;BME280_humidity;BME280_pressure;Samples;Min_cycle;Max_cycle;Signal;HPM_P1;HPM_P2
2021/01/26 00:01:21;;;;;;;21.87;19.93;;;0.90;99.90;;;;;;5049224;28;20462;-80
2021/01/26 00:03:48;;;;;;;22.50;20.27;;;0.90;99.90;;;;;;5047644;28;20431;-80
2021/01/26 00:06:15;;;;;;;21.77;19.67;;;0.80;99.90;;;;;;5049323;28;20450;-80
2021/01/26 00:08:41;;;;;;;20.90;19.00;;;0.70;99.90;;;;;;5050984;28;21030;-80
2021/01/26 00:11:08;;;;;;;21.57;19.57;;;0.60;99.90;;;;;;5047494;28;21008;-80
2021/01/26 00:13:34;;;;;;;22.00;20.00;;;0.60;99.90;;;;;;5050154;28;20824;-80
2021/01/26 00:16:01;;;;;;;21.47;19.53;;;0.60;99.90;;;;;;5047048;28;20450;-80
2021/01/26 00:18:28;;;;;;;22.13;20.07;;;0.50;99.90;;;;;;5051096;28;20438;-80
2021/01/26 00:20:55;;;;;;;21.73;19.73;;;0.40;99.90;;;;;;5045372;28;20433;-80
2021/01/26 00:23:21;;;;;;;22.40;20.20;;;0.30;99.90;;;;;;5049608;28;20477;-80
2021/01/26 00:25:48;;;;;;;21.20;19.30;;;0.30;99.90;;;;;;5049281;28;20465;-80
2021/01/26 00:28:16;;;;;;;21.07;19.07;;;0.20;99.90;;;;;;5047202;28;20441;-80
2021/01/26 00:30:43;;;;;;;19.63;17.93;;;0.20;99.90;;;;;;5049967;28;20445;-80
2021/01/26 00:33:12;;;;;;;22.20;20.10;;;0.20;99.90;;;;;;5044701;28;20873;-80
2021/01/26 00:35:40;;;;;;;21.67;19.43;;;0.20;99.90;;;;;;5043566;28;20469;-80
2021/01/26 00:38:07;;;;;;;21.63;19.63;;;0.20;99.90;;;;;;5050536;28;20442;-80
2021/01/26 00:40:33;;;;;;;20.80;18.90;;;0.10;99.90;;;;;;5049201;28;20817;-80
2021/01/26 00:43:00;;;;;;;21.43;19.43;;;0.10;99.90;;;;;;5046600;28;20476;-80
2021/01/26 00:45:28;;;;;;;21.77;19.67;;;0.10;99.90;;;;;;5048585;28;20457;-80
2021/01/26 00:47:55;;;;;;;21.83;19.73;;;0.00;99.90;;;;;;5044763;28;20454;-79
2021/01/26 00:50:22;;;;;;;21.90;19.80;;;0.00;99.90;;;;;;5043453;28;20434;-80
2021/01/26 00:52:49;;;;;;;21.00;19.10;;;0.10;99.90;;;;;;5054210;28;20454;-80
2021/01/26 00:55:24;;;;;;;21.17;19.27;;;0.00;99.90;;;;;;5053660;28;20578;-80
2021/01/26 00:57:51;;;;;;;20.87;18.97;;;-0.10;99.90;;;;;;5052428;28;20445;-80
2021/01/26 01:00:22;;;;;;;21.80;19.73;;;-0.10;99.90;;;;;;5053378;28;20468;-80
2021/01/26 01:02:49;;;;;;;20.17;18.40;;;-0.10;99.90;;;;;;5052148;28;20473;-80
2021/01/26 01:05:16;;;;;;;21.13;19.23;;;-0.10;99.90;;;;;;5053095;28;20465;-80
2021/01/26 01:07:42;;;;;;;20.77;18.87;;;-0.10;99.90;;;;;;5049551;28;20513;-80
2021/01/26 01:10:11;;;;;;;20.80;19.00;;;0.00;99.90;;;;;;5054550;28;20434;-80
2021/01/26 01:12:39;;;;;;;20.67;18.87;;;-0.10;99.90;;;;;;5065905;28;20834;-80
2021/01/26 01:15:07;;;;;;;21.10;19.17;;;-0.10;99.90;;;;;;5052382;28;20835;-80
2021/01/26 01:17:33;;;;;;;21.13;19.27;;;-0.10;99.90;;;;;;5050328;28;20481;-79
2021/01/26 01:20:00;;;;;;;21.07;19.10;;;0.00;99.90;;;;;;5052685;28;20469;-80
2021/01/26 01:22:27;;;;;;;20.27;18.40;;;0.00;99.90;;;;;;5042543;28;20471;-80
2021/01/26 01:24:53;;;;;;;20.87;18.87;;;0.00;99.90;;;;;;5048790;28;20461;-80
2021/01/26 01:27:20;;;;;;;20.80;18.87;;;-0.10;99.90;;;;;;5052941;28;20449;-80
2021/01/26 01:29:47;;;;;;;20.87;19.00;;;0.00;99.90;;;;;;5064490;28;20446;-80
2021/01/26 01:32:13;;;;;;;20.03;18.23;;;-0.10;99.90;;;;;;5044766;28;20448;-80
2021/01/26 01:34:39;;;;;;;21.97;19.97;;;0.00;99.90;;;;;;5045876;28;20489;-80
2021/01/26 01:37:05;;;;;;;21.07;19.20;;;0.00;99.90;;;;;;5050958;28;20986;-80
2021/01/26 01:39:32;;;;;;;20.17;18.43;;;0.00;99.90;;;;;;5061103;28;20476;-80
2021/01/26 01:41:58;;;;;;;20.93;19.03;;;-0.10;99.90;;;;;;5049593;28;20897;-80
2021/01/26 01:44:24;;;;;;;20.33;18.50;;;-0.10;99.90;;;;;;5051863;28;20465;-80
2021/01/26 01:46:55;;;;;;;19.33;17.73;;;-0.10;99.90;;;;;;5066015;28;20829;-80
2021/01/26 01:49:25;;;;;;;19.83;18.03;;;-0.10;99.90;;;;;;5049371;28;20453;-80
2021/01/26 01:51:52;;;;;;;19.07;17.37;;;-0.10;99.90;;;;;;5052055;28;20447;-81
2021/01/26 01:54:23;;;;;;;19.67;17.97;;;-0.10;99.90;;;;;;5045652;28;20512;-81
2021/01/26 01:56:57;;;;;;;20.77;18.50;;;-0.10;99.90;;;;;;5051291;28;20476;-80
2021/01/26 01:59:27;;;;;;;19.03;17.43;;;-0.10;99.90;;;;;;5046922;28;20450;-80
2021/01/26 02:01:54;;;;;;;18.83;17.23;;;-0.10;99.90;;;;;;5044242;28;20462;-80
2021/01/26 02:04:23;;;;;;;20.33;18.53;;;-0.10;99.90;;;;;;5048960;28;20464;-80
2021/01/26 02:06:54;;;;;;;19.70;18.00;;;-0.10;99.90;;;;;;5060802;28;20965;-80
2021/01/26 02:09:25;;;;;;;18.93;17.23;;;0.00;99.90;;;;;;5043901;28;20446;-80
2021/01/26 02:11:52;;;;;;;19.47;17.77;;;0.00;99.90;;;;;;5045532;28;20439;-80
2021/01/26 02:14:18;;;;;;;18.50;16.90;;;0.00;99.90;;;;;;5048700;28;20474;-80
2021/01/26 02:17:00;;;;;;;19.63;17.63;;;0.00;99.90;;;;;;5047634;28;21169;-80
2021/01/26 02:20:08;;;;;;;19.73;18.10;;;0.10;99.90;;;;;;5043746;28;20445;-81
2021/01/26 02:23:07;;;;;;;18.57;16.83;;;0.10;99.90;;;;;;5037946;28;20469;-80
2021/01/26 02:25:57;;;;;;;18.70;17.07;;;0.10;99.90;;;;;;5046000;28;20461;-81
2021/01/26 02:28:55;;;;;;;19.10;17.40;;;0.10;99.90;;;;;;5042971;28;20436;-80
2021/01/26 02:31:53;;;;;;;19.10;17.37;;;0.10;99.90;;;;;;5052203;28;20442;-80
2021/01/26 02:35:04;;;;;;;18.53;16.83;;;0.10;99.90;;;;;;5050210;28;20454;-80
2021/01/26 02:38:14;;;;;;;18.43;16.87;;;0.10;99.90;;;;;;5046284;28;20431;-80
2021/01/26 02:40:50;;;;;;;18.60;17.00;;;0.20;99.90;;;;;;5067454;28;20965;-80
2021/01/26 02:43:46;;;;;;;17.93;16.40;;;0.10;99.90;;;;;;5048459;28;20480;-80
2021/01/26 02:46:26;;;;;;;18.43;16.73;;;0.10;99.90;;;;;;5042520;28;20455;-80
2021/01/26 02:49:05;;;;;;;18.20;16.50;;;0.10;99.90;;;;;;5050876;28;20445;-80
2021/01/26 02:51:38;;;;;;;18.83;17.23;;;0.00;99.90;;;;;;5045049;28;20989;-80
2021/01/26 02:54:12;;;;;;;18.17;16.77;;;0.10;99.90;;;;;;5054934;28;20528;-80
2021/01/26 02:56:48;;;;;;;18.37;16.83;;;0.00;99.90;;;;;;5045150;28;20507;-80
2021/01/26 02:59:28;;;;;;;18.60;17.07;;;-0.10;99.90;;;;;;5044400;28;20434;-80
2021/01/26 03:01:58;;;;;;;18.90;17.30;;;-0.10;99.90;;;;;;5044376;28;20560;-80
2021/01/26 03:04:31;;;;;;;20.17;18.20;;;-0.10;99.90;;;;;;5049410;28;20453;-80
2021/01/26 03:07:01;;;;;;;19.13;17.43;;;-0.10;99.90;;;;;;5047241;28;20533;-79
2021/01/26 03:09:31;;;;;;;19.17;17.50;;;-0.10;99.90;;;;;;5039476;28;20985;-80
2021/01/26 03:12:03;;;;;;;19.63;17.93;;;-0.10;99.90;;;;;;5046910;28;20563;-80
2021/01/26 03:14:34;;;;;;;19.43;17.73;;;-0.10;99.90;;;;;;5043393;28;20470;-81
2021/01/26 03:17:10;;;;;;;20.30;18.50;;;0.00;99.90;;;;;;5043449;28;20453;-80
2021/01/26 03:19:39;;;;;;;20.00;18.30;;;0.00;99.90;;;;;;5043703;28;20446;-80
2021/01/26 03:22:08;;;;;;;19.70;17.90;;;0.00;99.90;;;;;;5044149;28;20471;-80
2021/01/26 03:24:38;;;;;;;19.20;17.50;;;0.00;99.90;;;;;;5042844;28;20473;-79
2021/01/26 03:27:08;;;;;;;19.07;17.47;;;0.00;99.90;;;;;;5067870;28;20457;-80
2021/01/26 03:29:38;;;;;;;19.30;17.47;;;0.10;99.90;;;;;;5048565;28;20441;-80
2021/01/26 03:32:09;;;;;;;20.20;18.43;;;0.10;99.90;;;;;;5048284;28;20450;-81
2021/01/26 03:34:36;;;;;;;19.63;17.77;;;0.10;99.90;;;;;;5055190;28;20834;-81
2021/01/26 03:37:04;;;;;;;19.23;17.60;;;0.10;99.90;;;;;;5056141;28;20445;-78
2021/01/26 03:39:31;;;;;;;19.50;17.80;;;0.10;99.90;;;;;;5059836;28;21020;-78
2021/01/26 03:41:58;;;;;;;18.00;16.57;;;0.00;99.90;;;;;;5049424;28;20466;-81
2021/01/26 03:44:25;;;;;;;18.60;17.00;;;0.00;99.90;;;;;;5042591;28;20474;-80
2021/01/26 03:47:16;;;;;;;18.33;16.77;;;0.00;99.90;;;;;;5044108;28;20450;-80
2021/01/26 03:50:02;;;;;;;18.07;16.57;;;-0.10;99.90;;;;;;5046991;28;20455;-76
2021/01/26 03:52:53;;;;;;;18.40;16.80;;;-0.10;99.90;;;;;;5046354;28;20440;-78
2021/01/26 03:55:28;;;;;;;19.77;17.97;;;-0.10;99.90;;;;;;5060151;28;20468;-78
2021/01/26 03:58:13;;;;;;;18.77;17.17;;;-0.10;99.90;;;;;;5060271;28;20934;-78
2021/01/26 04:00:44;;;;;;;19.20;17.50;;;-0.20;99.90;;;;;;5046696;28;20461;-76
2021/01/26 04:03:25;;;;;;;19.43;17.63;;;-0.10;99.90;;;;;;5055499;28;20469;-77
2021/01/26 04:05:55;;;;;;;19.73;17.83;;;-0.10;99.90;;;;;;5063677;28;20469;-77
2021/01/26 04:08:30;;;;;;;18.87;17.27;;;-0.10;99.90;;;;;;5066600;28;20453;-77
2021/01/26 04:11:05;;;;;;;19.10;17.50;;;-0.10;99.90;;;;;;5059607;28;20492;-77
2021/01/26 04:13:37;;;;;;;20.53;18.70;;;-0.10;99.90;;;;;;5050413;28;20449;-78
2021/01/26 04:16:05;;;;;;;19.03;17.33;;;0.00;99.90;;;;;;5051466;28;20430;-78
2021/01/26 04:18:38;;;;;;;19.67;17.87;;;0.00;99.90;;;;;;5057455;28;20861;-78
2021/01/26 04:21:05;;;;;;;20.80;18.87;;;0.00;99.90;;;;;;5056065;28;20454;-78
2021/01/26 04:23:32;;;;;;;19.23;17.60;;;0.10;99.90;;;;;;5055084;28;20478;-78
2021/01/26 04:26:05;;;;;;;18.70;17.10;;;0.10;99.90;;;;;;5055708;28;20453;-77
2021/01/26 04:28:37;;;;;;;19.70;18.00;;;0.10;99.90;;;;;;5053927;28;21188;-77
2021/01/26 04:31:05;;;;;;;19.37;17.67;;;0.20;99.90;;;;;;5048928;28;20435;-76
2021/01/26 04:33:32;;;;;;;18.40;16.80;;;0.20;99.90;;;;;;5047562;28;20429;-77
2021/01/26 04:35:58;;;;;;;18.40;16.80;;;0.20;99.90;;;;;;5058879;28;20786;-78
2021/01/26 04:38:24;;;;;;;18.57;17.00;;;0.20;99.90;;;;;;5053247;28;20918;-77
2021/01/26 04:40:54;;;;;;;19.03;17.37;;;0.20;99.90;;;;;;5058218;28;20441;-78
2021/01/26 04:43:30;;;;;;;19.37;17.67;;;0.20;99.90;;;;;;5055673;28;20484;-77
2021/01/26 04:46:07;;;;;;;18.83;17.23;;;0.30;99.90;;;;;;5051002;28;20436;-77
2021/01/26 04:48:42;;;;;;;18.67;17.07;;;0.30;99.90;;;;;;5066096;28;20449;-77
2021/01/26 04:51:17;;;;;;;19.40;17.53;;;0.30;99.90;;;;;;5050319;28;20803;-77
2021/01/26 04:54:04;;;;;;;19.23;17.47;;;0.30;99.90;;;;;;5060404;28;20432;-77
2021/01/26 04:56:40;;;;;;;18.13;16.63;;;0.40;99.90;;;;;;5062216;28;20826;-77
2021/01/26 04:59:15;;;;;;;18.93;17.33;;;0.40;99.90;;;;;;5054947;28;20529;-77
2021/01/26 05:02:26;;;;;;;19.07;17.37;;;0.40;99.90;;;;;;5057710;28;20930;-76
2021/01/26 05:04:54;;;;;;;19.80;17.73;;;0.40;99.90;;;;;;5030461;28;20822;-76
2021/01/26 05:07:25;;;;;;;19.30;17.57;;;0.50;99.90;;;;;;5046189;28;20446;-76
2021/01/26 05:09:57;;;;;;;18.50;17.07;;;0.50;99.90;;;;;;5046787;28;20425;-76
2021/01/26 05:12:25;;;;;;;18.30;16.80;;;0.50;99.90;;;;;;5045002;28;20989;-76
2021/01/26 05:15:00;;;;;;;18.73;17.13;;;0.50;99.90;;;;;;5046642;28;20470;-79
2021/01/26 05:17:31;;;;;;;18.87;17.37;;;0.50;99.90;;;;;;5050005;28;20443;-78
2021/01/26 05:20:02;;;;;;;19.90;18.00;;;0.40;99.90;;;;;;5050691;28;20441;-77
2021/01/26 05:22:40;;;;;;;19.20;17.60;;;0.40;99.90;;;;;;5052126;28;20480;-76
2021/01/26 05:25:10;;;;;;;18.57;17.07;;;0.50;99.90;;;;;;5060731;28;20465;-76
2021/01/26 05:27:36;;;;;;;19.17;17.57;;;0.50;99.90;;;;;;5051541;28;20851;-76
2021/01/26 05:30:08;;;;;;;20.30;18.20;;;0.50;99.90;;;;;;5054204;28;20427;-76
2021/01/26 05:32:36;;;;;;;20.47;18.77;;;0.50;99.90;;;;;;5048244;28;20438;-76
2021/01/26 05:35:02;;;;;;;20.40;18.70;;;0.50;99.90;;;;;;5053441;28;20499;-76
2021/01/26 05:37:30;;;;;;;19.63;17.83;;;0.50;99.90;;;;;;5048605;28;20431;-76
2021/01/26 05:40:02;;;;;;;19.27;17.53;;;0.50;99.90;;;;;;5053672;28;20973;-76
2021/01/26 05:42:30;;;;;;;20.57;18.57;;;0.50;99.90;;;;;;5045110;28;20467;-76
2021/01/26 05:44:59;;;;;;;19.03;17.50;;;0.50;99.90;;;;;;5052114;28;20485;-76
2021/01/26 05:47:28;;;;;;;18.53;16.97;;;0.50;99.90;;;;;;5050724;28;20434;-76
2021/01/26 05:49:55;;;;;;;18.73;17.20;;;0.50;99.90;;;;;;5053022;28;20437;-76
2021/01/26 05:52:30;;;;;;;18.87;17.27;;;0.50;99.90;;;;;;5049832;28;20499;-76
2021/01/26 05:54:59;;;;;;;17.63;16.20;;;0.50;99.90;;;;;;5052703;28;20472;-76
2021/01/26 05:57:28;;;;;;;18.20;16.63;;;0.50;99.90;;;;;;5052476;28;20434;-75
2021/01/26 06:00:13;;;;;;;17.43;16.13;;;0.50;99.90;;;;;;5049497;28;20852;-78
2021/01/26 06:02:40;;;;;;;17.77;16.33;;;0.50;99.90;;;;;;5049021;28;20506;-78
2021/01/26 06:05:10;;;;;;;17.43;15.93;;;0.50;99.90;;;;;;5054059;28;20926;-78
2021/01/26 06:07:36;;;;;;;16.90;15.50;;;0.50;99.90;;;;;;5050247;28;20524;-78
2021/01/26 06:10:16;;;;;;;16.80;15.57;;;0.50;99.90;;;;;;5054339;28;20495;-78
2021/01/26 06:12:53;;;;;;;16.80;15.50;;;0.50;99.90;;;;;;5052270;28;20446;-78
2021/01/26 06:15:23;;;;;;;17.90;16.50;;;0.50;99.90;;;;;;5051851;28;20461;-78
2021/01/26 06:17:50;;;;;;;17.87;16.27;;;0.50;99.90;;;;;;5055598;28;20453;-78
2021/01/26 06:20:20;;;;;;;16.73;15.43;;;0.60;99.90;;;;;;5049239;28;20878;-78
2021/01/26 06:22:47;;;;;;;16.10;14.80;;;0.60;99.90;;;;;;5052846;28;20464;-79
2021/01/26 06:25:21;;;;;;;16.63;15.23;;;0.60;99.90;;;;;;5052402;28;20489;-78
2021/01/26 06:28:08;;;;;;;15.97;14.60;;;0.60;99.90;;;;;;5049167;28;20457;-78
2021/01/26 06:30:43;;;;;;;17.30;15.90;;;0.60;99.90;;;;;;5048722;28;20446;-78
2021/01/26 06:33:43;;;;;;;16.37;14.90;;;0.60;99.90;;;;;;5053860;28;20440;-78
2021/01/26 06:36:41;;;;;;;16.83;15.33;;;0.60;99.90;;;;;;5055338;28;20814;-78
2021/01/26 06:39:22;;;;;;;16.37;15.07;;;0.60;99.90;;;;;;5047286;28;20762;-78
2021/01/26 06:42:06;;;;;;;16.83;15.43;;;0.60;99.90;;;;;;5048758;28;21033;-79
2021/01/26 06:45:03;;;;;;;16.90;15.50;;;0.60;99.90;;;;;;5060692;28;20505;-78
2021/01/26 06:47:59;;;;;;;16.80;15.50;;;0.50;99.90;;;;;;5047520;28;20985;-78
2021/01/26 06:50:38;;;;;;;16.80;15.43;;;0.60;99.90;;;;;;5051748;28;20451;-79
2021/01/26 06:53:17;;;;;;;16.40;15.00;;;0.60;99.90;;;;;;5052950;28;20480;-78
2021/01/26 06:55:57;;;;;;;16.53;15.13;;;0.50;99.90;;;;;;5051351;28;20478;-78
2021/01/26 06:58:40;;;;;;;15.73;14.50;;;0.60;99.90;;;;;;5053500;28;20659;-79
2021/01/26 07:01:31;;;;;;;15.70;14.50;;;0.60;99.90;;;;;;5050740;28;20476;-78
2021/01/26 07:04:15;;;;;;;16.53;15.03;;;0.60;99.90;;;;;;5052606;28;20478;-78
2021/01/26 07:07:04;;;;;;;16.27;15.03;;;0.60;99.90;;;;;;5064370;28;20461;-77
2021/01/26 07:09:52;;;;;;;15.13;13.93;;;0.60;99.90;;;;;;5032469;28;20505;-78
2021/01/26 07:13:05;;;;;;;15.37;14.27;;;0.70;99.90;;;;;;5043589;28;20450;-78
2021/01/26 07:15:52;;;;;;;15.30;14.30;;;0.70;99.90;;;;;;5033272;28;20473;-79
2021/01/26 07:18:44;;;;;;;15.53;14.33;;;0.70;99.90;;;;;;5052061;28;20437;-78
2021/01/26 07:21:20;;;;;;;15.37;14.17;;;0.80;99.90;;;;;;5046231;28;20496;-78
2021/01/26 07:24:09;;;;;;;15.17;13.97;;;0.70;99.90;;;;;;5051274;28;20499;-78
2021/01/26 07:26:57;;;;;;;15.37;14.07;;;0.70;99.90;;;;;;5054651;28;20445;-78
2021/01/26 07:29:48;;;;;;;14.57;13.57;;;0.80;99.90;;;;;;5051972;28;20454;-78
2021/01/26 07:32:20;;;;;;;14.57;13.57;;;0.80;99.90;;;;;;5052787;28;20529;-78
2021/01/26 07:34:57;;;;;;;15.30;14.00;;;0.90;99.90;;;;;;5051549;28;20459;-78
2021/01/26 07:37:28;;;;;;;15.47;14.27;;;0.80;99.90;;;;;;5052052;28;20544;-78
2021/01/26 07:40:02;;;;;;;15.00;13.90;;;0.80;99.90;;;;;;5050149;28;20431;-78
2021/01/26 07:42:36;;;;;;;15.20;13.80;;;0.90;99.90;;;;;;5047252;28;20473;-77
2021/01/26 07:45:08;;;;;;;14.27;13.27;;;0.90;99.90;;;;;;5055757;28;20469;-78
2021/01/26 07:47:37;;;;;;;13.60;12.60;;;1.00;99.90;;;;;;5049464;28;20438;-79
2021/01/26 07:50:09;;;;;;;14.73;13.37;;;1.00;99.90;;;;;;5050065;28;20441;-78
2021/01/26 07:52:39;;;;;;;14.20;13.17;;;1.00;99.90;;;;;;5050111;28;20454;-78
2021/01/26 07:55:10;;;;;;;13.80;12.80;;;1.10;99.90;;;;;;5051048;28;20465;-78
2021/01/26 07:57:42;;;;;;;13.60;12.63;;;1.10;99.90;;;;;;5048738;28;20449;-78
2021/01/26 08:00:12;;;;;;;13.97;12.87;;;1.10;99.90;;;;;;5046005;28;20442;-78
2021/01/26 08:02:42;;;;;;;12.93;12.13;;;1.10;99.90;;;;;;5047051;28;20461;-78
2021/01/26 08:05:11;;;;;;;14.20;13.20;;;1.20;99.90;;;;;;5049991;28;20521;-78
2021/01/26 08:07:38;;;;;;;14.60;13.40;;;1.30;99.90;;;;;;5062675;28;20511;-78
2021/01/26 08:10:06;;;;;;;12.93;11.93;;;1.30;99.90;;;;;;5047131;28;20962;-78
2021/01/26 08:12:45;;;;;;;13.70;12.57;;;1.30;99.90;;;;;;5051682;28;20827;-78
2021/01/26 08:15:16;;;;;;;13.50;12.50;;;1.30;99.90;;;;;;5054536;28;21005;-78
2021/01/26 08:17:44;;;;;;;13.37;12.47;;;1.30;99.90;;;;;;5050521;28;20533;-78
2021/01/26 08:20:15;;;;;;;12.90;11.90;;;1.30;99.90;;;;;;5050918;28;20974;-78
2021/01/26 08:22:45;;;;;;;13.50;12.40;;;1.30;99.90;;;;;;5048798;28;20991;-78
2021/01/26 08:25:23;;;;;;;13.40;12.50;;;1.30;99.90;;;;;;5046781;28;20539;-78
2021/01/26 08:28:00;;;;;;;13.37;12.47;;;1.30;99.90;;;;;;5045854;28;20461;-78
2021/01/26 08:31:01;;;;;;;13.70;12.47;;;1.30;99.90;;;;;;5045205;28;20438;-78
2021/01/26 08:33:33;;;;;;;12.97;12.03;;;1.30;99.90;;;;;;5045664;28;20430;-78
2021/01/26 08:36:25;;;;;;;13.40;12.50;;;1.30;99.90;;;;;;5048381;28;20449;-77
2021/01/26 08:38:55;;;;;;;12.57;11.67;;;1.40;99.90;;;;;;5041895;28;20457;-78
2021/01/26 08:41:43;;;;;;;13.13;12.13;;;1.30;99.90;;;;;;5051491;28;20442;-78
2021/01/26 08:44:52;;;;;;;12.93;12.03;;;1.30;99.90;;;;;;5052819;28;20486;-78
2021/01/26 08:47:42;;;;;;;13.00;12.10;;;1.40;99.90;;;;;;5067486;28;21060;-79
2021/01/26 08:50:15;;;;;;;12.40;11.60;;;1.40;99.90;;;;;;5044467;28;20437;-78
2021/01/26 08:52:41;;;;;;;13.03;12.13;;;1.40;99.90;;;;;;5063658;28;20446;-78
2021/01/26 08:55:08;;;;;;;13.27;12.17;;;1.30;99.90;;;;;;5050128;28;20915;-78
2021/01/26 08:57:43;;;;;;;13.33;12.13;;;1.30;99.90;;;;;;5051814;28;20438;-78
2021/01/26 09:00:36;;;;;;;12.93;12.03;;;1.30;99.90;;;;;;5056636;28;20559;-78
2021/01/26 09:03:26;;;;;;;12.57;11.67;;;1.40;99.90;;;;;;5045505;28;20474;-78
2021/01/26 09:05:59;;;;;;;13.20;12.30;;;1.40;99.90;;;;;;5046388;28;21021;-79
2021/01/26 09:08:48;;;;;;;13.20;12.30;;;1.40;99.90;;;;;;5054761;28;20491;-78
2021/01/26 09:11:17;;;;;;;13.30;12.40;;;1.40;99.90;;;;;;5049366;28;20499;-78
2021/01/26 09:13:46;;;;;;;13.17;12.27;;;1.40;99.90;;;;;;5047871;28;20572;-78
2021/01/26 09:16:18;;;;;;;13.93;12.90;;;1.50;99.90;;;;;;5049676;28;20457;-78
2021/01/26 09:18:52;;;;;;;13.93;12.93;;;1.50;99.90;;;;;;5049134;28;20449;-78
2021/01/26 09:21:19;;;;;;;13.17;12.27;;;1.50;99.90;;;;;;5053804;28;20458;-78
2021/01/26 09:23:46;;;;;;;13.27;12.23;;;1.50;99.90;;;;;;5047333;28;20470;-78
2021/01/26 09:26:14;;;;;;;13.50;12.57;;;1.50;99.90;;;;;;5054381;28;20477;-77
2021/01/26 09:28:43;;;;;;;13.93;12.63;;;1.50;99.90;;;;;;5050908;28;20438;-79
2021/01/26 09:31:11;;;;;;;12.87;11.90;;;1.50;99.90;;;;;;5049232;28;20440;-78
2021/01/26 09:33:39;;;;;;;14.07;12.90;;;1.60;99.90;;;;;;5048716;28;20443;-78
2021/01/26 09:36:11;;;;;;;13.97;12.97;;;1.50;99.90;;;;;;5058999;28;20437;-78
2021/01/26 09:38:41;;;;;;;13.60;12.70;;;1.50;99.90;;;;;;5048611;28;20848;-78
2021/01/26 09:41:17;;;;;;;14.00;13.00;;;1.60;99.90;;;;;;5054876;28;20442;-78
2021/01/26 09:43:44;;;;;;;14.10;13.00;;;1.60;99.90;;;;;;5052129;28;20478;-78
2021/01/26 09:46:14;;;;;;;14.27;13.17;;;1.60;99.90;;;;;;5049309;28;20514;-78
2021/01/26 09:48:44;;;;;;;14.00;12.90;;;1.70;99.90;;;;;;5050965;28;20463;-78
2021/01/26 09:51:17;;;;;;;13.33;12.43;;;1.70;99.90;;;;;;5047903;28;20453;-78
2021/01/26 09:53:45;;;;;;;13.90;12.90;;;1.80;99.90;;;;;;5052660;28;20431;-78
2021/01/26 09:56:16;;;;;;;13.20;12.30;;;1.80;99.90;;;;;;5048585;28;20462;-78
2021/01/26 09:58:44;;;;;;;13.80;12.80;;;1.80;99.90;;;;;;5050575;28;20520;-78
2021/01/26 10:01:12;;;;;;;14.10;13.10;;;1.90;99.90;;;;;;5052573;28;20451;-78
2021/01/26 10:03:39;;;;;;;13.90;12.80;;;2.00;99.90;;;;;;5050253;28;20541;-77
2021/01/26 10:06:06;;;;;;;14.13;13.03;;;2.10;99.90;;;;;;5049077;28;20818;-79
2021/01/26 10:08:34;;;;;;;14.40;13.30;;;2.20;99.90;;;;;;5048028;28;20442;-78
2021/01/26 10:11:13;;;;;;;13.53;12.57;;;2.30;99.90;;;;;;5047465;28;20979;-78
2021/01/26 10:13:41;;;;;;;14.20;13.20;;;2.40;99.90;;;;;;5044421;28;20450;-78
2021/01/26 10:16:37;;;;;;;14.00;12.90;;;2.50;99.90;;;;;;5052367;28;20442;-78
2021/01/26 10:19:10;;;;;;;14.37;13.10;;;2.60;99.90;;;;;;5039690;28;20507;-78
2021/01/26 10:21:37;;;;;;;12.50;11.60;;;2.60;99.90;;;;;;5052385;28;20928;-78
2021/01/26 10:24:07;;;;;;;12.70;11.60;;;2.70;99.90;;;;;;5051238;28;20477;-78
2021/01/26 10:26:39;;;;;;;12.87;11.87;;;2.80;99.90;;;;;;5050286;28;20434;-78
2021/01/26 10:29:23;;;;;;;13.40;12.40;;;2.90;99.90;;;;;;5048460;28;20456;-78
2021/01/26 10:31:53;;;;;;;13.20;12.20;;;3.00;99.90;;;;;;5049401;28;20448;-78
2021/01/26 10:34:34;;;;;;;12.90;11.90;;;3.00;99.90;;;;;;5047206;28;20453;-78
2021/01/26 10:37:13;;;;;;;13.20;12.10;;;3.00;99.90;;;;;;5050531;28;20498;-78
2021/01/26 10:39:41;;;;;;;12.93;11.83;;;3.00;99.90;;;;;;5050629;28;20450;-79
2021/01/26 10:42:15;;;;;;;12.93;11.93;;;2.90;99.90;;;;;;5046076;28;20549;-78
2021/01/26 10:44:44;;;;;;;13.10;12.13;;;2.90;99.90;;;;;;5048564;28;20470;-78
2021/01/26 10:47:16;;;;;;;13.30;12.30;;;2.90;99.90;;;;;;5052200;28;20440;-78
2021/01/26 10:49:43;;;;;;;14.57;13.27;;;2.80;99.90;;;;;;5047665;28;20457;-78
2021/01/26 10:52:10;;;;;;;13.87;12.53;;;2.80;99.90;;;;;;5047804;28;20444;-78
2021/01/26 10:54:37;;;;;;;12.97;11.87;;;2.90;99.90;;;;;;5047649;28;20470;-79
2021/01/26 10:57:03;;;;;;;13.47;12.20;;;3.00;99.90;;;;;;5046561;28;20503;-78
2021/01/26 10:59:30;;;;;;;12.13;11.30;;;3.00;99.90;;;;;;5045512;28;20453;-78
2021/01/26 11:01:56;;;;;;;12.77;11.87;;;3.20;99.90;;;;;;5046377;28;21036;-79
2021/01/26 11:04:23;;;;;;;14.17;12.77;;;3.30;99.90;;;;;;5049717;28;20493;-78
2021/01/26 11:06:50;;;;;;;14.50;13.30;;;3.50;99.90;;;;;;5046941;28;20966;-79
2021/01/26 11:09:17;;;;;;;10.90;10.00;;;3.60;99.90;;;;;;5045491;28;20455;-79
2021/01/26 11:11:44;;;;;;;6.73;5.03;;;3.80;99.90;;;;;;5045652;28;20452;-78
2021/01/26 11:14:11;;;;;;;13.90;12.60;;;3.80;99.90;;;;;;5054969;28;20507;-78
2021/01/26 11:16:37;;;;;;;13.80;12.70;;;3.90;99.90;;;;;;5055107;28;20480;-78
2021/01/26 11:19:04;;;;;;;6.67;4.73;;;3.90;99.90;;;;;;5052184;28;20480;-78
2021/01/26 11:21:31;;;;;;;8.20;5.63;;;3.80;99.90;;;;;;5054201;28;20206;-78
2021/01/26 11:23:58;;;;;;;7.57;4.63;;;3.80;99.90;;;;;;5046663;28;20482;-78
2021/01/26 11:26:26;;;;;;;9.37;4.83;;;3.80;99.90;;;;;;5046168;28;20960;-79
2021/01/26 11:28:53;;;;;;;7.97;4.60;;;3.80;99.90;;;;;;5049507;28;20449;-78
2021/01/26 11:31:20;;;;;;;7.10;4.77;;;3.80;99.90;;;;;;5045897;28;20209;-78
2021/01/26 11:33:47;;;;;;;5.27;4.10;;;3.80;99.90;;;;;;5045605;28;20441;-78
2021/01/26 11:36:14;;;;;;;6.37;4.47;;;3.80;99.90;;;;;;5045207;28;20246;-78
2021/01/26 11:38:40;;;;;;;5.80;4.03;;;3.90;99.90;;;;;;5049389;28;20688;-78
2021/01/26 11:41:07;;;;;;;5.70;4.47;;;3.90;99.90;;;;;;5051435;28;20257;-78
2021/01/26 11:43:34;;;;;;;7.10;4.97;;;3.90;99.90;;;;;;5047548;28;20534;-78
2021/01/26 11:46:01;;;;;;;4.97;4.50;;;3.80;99.90;;;;;;5051113;28;20199;-78
2021/01/26 11:48:29;;;;;;;4.60;3.70;;;3.80;99.90;;;;;;5054732;28;20450;-78
2021/01/26 11:50:55;;;;;;;4.83;4.20;;;3.70;99.90;;;;;;5046849;28;20438;-78
2021/01/26 11:53:22;;;;;;;6.23;3.97;;;3.80;99.90;;;;;;5046525;28;20514;-78
2021/01/26 11:55:49;;;;;;;6.07;4.00;;;3.70;99.90;;;;;;5048810;28;20481;-79
2021/01/26 11:58:16;;;;;;;4.17;3.67;;;3.70;99.90;;;;;;5051477;28;20802;-77
2021/01/26 12:00:43;;;;;;;7.73;6.10;;;3.70;99.90;;;;;;5047773;28;20465;-79
2021/01/26 12:03:10;;;;;;;8.53;6.83;;;3.70;99.90;;;;;;5045837;28;20469;-78
2021/01/26 12:05:38;;;;;;;6.43;5.13;;;3.80;99.90;;;;;;5054582;28;20450;-78
2021/01/26 12:08:06;;;;;;;6.07;4.17;;;3.80;99.90;;;;;;5055706;28;20457;-78
2021/01/26 12:10:33;;;;;;;6.97;4.17;;;3.90;99.90;;;;;;5062581;28;20230;-78
2021/01/26 12:13:00;;;;;;;6.43;4.00;;;3.80;99.90;;;;;;5049999;28;20950;-78
2021/01/26 12:15:29;;;;;;;5.37;3.97;;;3.90;99.90;;;;;;5046221;28;20539;-78
2021/01/26 12:17:56;;;;;;;7.23;4.70;;;4.00;99.90;;;;;;5054841;28;20442;-78
2021/01/26 12:20:23;;;;;;;6.13;3.97;;;4.00;99.90;;;;;;5046191;28;20540;-78
2021/01/26 12:22:50;;;;;;;7.47;6.87;;;3.90;99.90;;;;;;5046909;28;20819;-78
2021/01/26 12:25:18;;;;;;;10.90;10.10;;;3.80;99.90;;;;;;5050158;28;20462;-78
2021/01/26 12:27:45;;;;;;;11.70;10.87;;;3.70;99.90;;;;;;5056500;28;20450;-79
2021/01/26 12:30:13;;;;;;;10.50;9.73;;;3.60;99.90;;;;;;5055897;28;20446;-78
2021/01/26 12:32:39;;;;;;;11.53;10.73;;;3.60;99.90;;;;;;5056236;28;20580;-78
2021/01/26 12:35:11;;;;;;;11.43;10.47;;;3.60;99.90;;;;;;5049897;28;20226;-79
2021/01/26 12:37:37;;;;;;;11.90;10.93;;;3.70;99.90;;;;;;5066641;28;20450;-77
2021/01/26 12:40:05;;;;;;;12.00;11.00;;;3.80;99.90;;;;;;5049991;28;20438;-77
2021/01/26 12:42:31;;;;;;;12.27;11.37;;;4.00;99.90;;;;;;5068499;28;20452;-77
2021/01/26 12:44:57;;;;;;;10.67;9.93;;;4.10;99.90;;;;;;5069545;28;20896;-78
2021/01/26 12:47:24;;;;;;;4.23;3.83;;;4.10;99.90;;;;;;5053764;28;20453;-78
2021/01/26 12:49:51;;;;;;;6.80;5.47;;;4.10;99.90;;;;;;5054566;28;20429;-78
2021/01/26 12:52:18;;;;;;;5.63;3.73;;;4.10;99.90;;;;;;5049134;28;20446;-78
2021/01/26 12:54:44;;;;;;;4.23;3.60;;;4.10;99.90;;;;;;5052875;28;20462;-78
2021/01/26 12:57:11;;;;;;;4.50;3.60;;;4.10;99.90;;;;;;5058967;28;20448;-78
2021/01/26 12:59:37;;;;;;;4.50;3.80;;;4.10;99.90;;;;;;5067945;28;20445;-78
2021/01/26 13:02:03;;;;;;;10.87;9.93;;;4.10;99.90;;;;;;5057206;28;20441;-78
2021/01/26 13:04:30;;;;;;;14.33;13.40;;;4.10;99.90;;;;;;5059416;28;20223;-78
2021/01/26 13:06:56;;;;;;;8.50;7.70;;;4.20;99.90;;;;;;5055794;28;20457;-78